Time;durP1;ratioP1;P1;durP2;ratioP2;P2;SDS_P1;SDS_P2;PMS_P1;PMS_P2;Temp;Humidity;BMP_temperature;BMP_pressure;BME280_temperature;BME280_humidity;BME280_pressure;Samples;Min_cycle;Max_cycle;Signal;HPM_P1;HPM_P2
2023/04/06 00:02:16;;;;;;;;;;;;;;;30.22;71.68;100900.75;5078315;27;66633;-41
2023/04/06 00:04:47;;;;;;;;;;;;;;;30.21;71.20;100904.47;5060910;27;70256;-44
2023/04/06 00:07:17;;;;;;;;;;;;;;;30.23;69.56;100907.81;5091197;27;66423;-43
2023/04/06 00:09:47;;;;;;;;;;;;;;;30.26;68.13;100912.81;5075823;27;69874;-41
2023/04/06 00:12:17;;;;;;;;;;;;;;;30.30;67.30;100912.38;5076159;27;66503;-40
2023/04/06 00:14:47;;;;;;;;;;;;;;;30.35;66.65;100915.28;5079333;28;70019;-41
2023/04/06 00:17:17;;;;;;;;;;;;;;;30.38;65.85;100922.94;5076516;27;66295;-40
2023/04/06 00:19:47;;;;;;;;;;;;;;;30.42;65.74;100932.28;5078555;27;69528;-41
2023/04/06 00:22:18;;;;;;;;;;;;;;;30.46;65.61;100933.53;5078499;28;66425;-40
2023/04/06 00:24:48;;;;;;;;;;;;;;;30.49;65.53;100935.81;5041131;28;68789;-40
2023/04/06 00:27:18;;;;;;;;;;;;;;;30.51;65.39;100941.84;5078276;28;65969;-41
2023/04/06 00:29:49;;;;;;;;;;;;;;;30.55;65.31;100942.22;5076642;28;69948;-40
2023/04/06 00:32:19;;;;;;;;;;;;;;;30.58;65.79;100948.03;5078542;27;66073;-40
2023/04/06 00:34:49;;;;;;;;;;;;;;;30.59;65.56;100944.28;5076725;27;70117;-41
2023/04/06 00:37:19;;;;;;;;;;;;;;;30.62;65.74;100951.97;5076838;28;66940;-41
2023/04/06 00:39:51;;;;;;;;;;;;;;;30.75;69.24;100955.66;5090345;27;69482;-42
2023/04/06 00:42:25;;;;;;;;;;;;;;;30.75;69.18;100964.59;5077215;27;66172;-41
2023/04/06 00:44:57;;;;;;;;;;;;;;;30.76;69.39;100976.25;5075900;27;68942;-42
2023/04/06 00:47:27;;;;;;;;;;;;;;;30.73;69.68;100974.84;5075160;27;65889;-43
2023/04/06 00:49:57;;;;;;;;;;;;;;;30.68;67.18;100975.47;5057793;28;69834;-42
2023/04/06 00:52:28;;;;;;;;;;;;;;;30.70;66.78;100984.22;5056627;27;67180;-43
2023/04/06 00:54:58;;;;;;;;;;;;;;;30.32;66.03;100921.13;5075005;27;70954;-42
2023/04/06 00:57:28;;;;;;;;;;;;;;;30.73;66.12;100989.19;5074219;27;66506;-41
2023/04/06 00:59:58;;;;;;;;;;;;;;;30.76;65.93;100987.09;5058891;27;69497;-41
2023/04/06 01:02:29;;;;;;;;;;;;;;;30.77;65.92;100994.19;5079528;27;66521;-41
2023/04/06 01:05:00;;;;;;;;;;;;;;;30.78;65.86;100993.94;5069718;27;69387;-41
2023/04/06 01:07:54;;;;;;;;;;;;;;;30.81;65.83;101000.84;5076114;27;59891;-42
2023/04/06 01:10:28;;;;;;;;;;;;;;;30.84;65.50;101013.94;5054240;28;70027;-42
2023/04/06 01:13:09;;;;;;;;;;;;;;;30.86;65.39;101009.16;5079582;27;67111;-41
2023/04/06 01:15:53;;;;;;;;;;;;;;;30.87;65.42;101008.09;5073538;28;70656;-41
2023/04/06 01:18:43;;;;;;;;;;;;;;;30.91;65.14;101012.03;5076266;27;66715;-40
2023/04/06 01:21:18;;;;;;;;;;;;;;;30.93;65.33;101020.78;5060113;27;69686;-41
2023/04/06 01:24:02;;;;;;;;;;;;;;;30.95;64.74;101015.97;5059479;28;65757;-42
2023/04/06 01:26:44;;;;;;;;;;;;;;;30.98;64.81;101020.97;5058010;27;69858;-42
2023/04/06 01:29:15;;;;;;;;;;;;;;;31.01;64.21;101027.81;5077000;27;67000;-41
2023/04/06 01:31:45;;;;;;;;;;;;;;;31.03;64.57;101015.69;5092452;27;70002;-41
2023/04/06 01:34:16;;;;;;;;;;;;;;;31.04;64.39;101014.66;5065463;27;66760;-40
2023/04/06 01:36:47;;;;;;;;;;;;;;;31.06;64.26;101026.09;5059376;28;68955;-41
2023/04/06 01:39:27;;;;;;;;;;;;;;;31.08;63.97;101023.19;5058971;27;66750;-41
2023/04/06 01:41:59;;;;;;;;;;;;;;;31.10;64.17;101030.06;5091866;27;70304;-41
2023/04/06 01:44:30;;;;;;;;;;;;;;;31.12;64.12;101030.66;5090928;27;66028;-42
2023/04/06 01:47:11;;;;;;;;;;;;;;;31.16;63.71;101037.28;5076418;27;69847;-41
2023/04/06 01:49:42;;;;;;;;;;;;;;;31.19;63.99;101040.63;5059348;28;66851;-41
2023/04/06 01:52:13;;;;;;;;;;;;;;;31.21;63.58;101043.97;5087598;27;70458;-41
2023/04/06 01:54:51;;;;;;;;;;;;;;;31.23;63.65;101041.84;5091021;27;67447;-40
2023/04/06 01:57:36;;;;;;;;;;;;;;;31.26;63.56;101044.09;5057195;28;69918;-42
2023/04/06 02:00:16;;;;;;;;;;;;;;;31.28;63.67;101039.31;5072567;27;65611;-43
2023/04/06 02:02:53;;;;;;;;;;;;;;;31.32;63.41;101045.97;5077845;27;70070;-42
2023/04/06 02:05:27;;;;;;;;;;;;;;;31.34;63.49;101035.72;5082837;27;65790;-41
2023/04/06 02:07:57;;;;;;;;;;;;;;;31.37;63.17;101038.00;5065803;27;70323;-42
2023/04/06 02:10:36;;;;;;;;;;;;;;;31.38;63.19;101039.69;5088488;27;67054;-40
2023/04/06 02:13:16;;;;;;;;;;;;;;;31.42;63.24;101035.47;5058075;27;70466;-41
2023/04/06 02:15:50;;;;;;;;;;;;;;;31.44;62.90;101036.09;5073261;28;65989;-42
2023/04/06 02:18:22;;;;;;;;;;;;;;;31.46;62.96;101031.28;5055290;27;69787;-41
2023/04/06 02:20:52;;;;;;;;;;;;;;;31.49;62.63;101033.56;5078076;27;66820;-41
2023/04/06 02:23:22;;;;;;;;;;;;;;;31.52;62.70;101030.41;5077522;27;70436;-41
2023/04/06 02:25:53;;;;;;;;;;;;;;;31.53;62.38;101021.19;5075892;27;66810;-41
2023/04/06 02:28:23;;;;;;;;;;;;;;;31.56;62.54;101020.75;5056002;27;70167;-39
2023/04/06 02:30:53;;;;;;;;;;;;;;;31.60;62.57;101019.28;5060712;27;66046;-40
2023/04/06 02:33:27;;;;;;;;;;;;;;;31.62;62.45;101019.03;5062596;28;69450;-42
2023/04/06 02:35:59;;;;;;;;;;;;;;;31.65;62.21;101020.47;5076087;27;66468;-40
2023/04/06 02:38:30;;;;;;;;;;;;;;;31.67;62.30;101019.19;5074614;27;70099;-41
2023/04/06 02:41:02;;;;;;;;;;;;;;;31.69;62.08;101006.25;5058772;27;66634;-40
2023/04/06 02:43:33;;;;;;;;;;;;;;;31.72;62.20;101008.53;5077009;27;70694;-42
2023/04/06 02:46:15;;;;;;;;;;;;;;;31.76;62.12;101008.91;5068411;27;67020;-41
2023/04/06 02:48:46;;;;;;;;;;;;;;;31.78;61.74;101006.81;5058010;27;69972;-41
2023/04/06 02:51:16;;;;;;;;;;;;;;;31.80;61.83;101004.69;5057272;28;65982;-40
2023/04/06 02:53:52;;;;;;;;;;;;;;;31.84;61.75;101000.47;5064757;27;69339;-42
2023/04/06 02:56:22;;;;;;;;;;;;;;;31.87;61.63;101000.03;5056852;28;66339;-40
2023/04/06 02:58:53;;;;;;;;;;;;;;;31.89;61.68;100997.91;5054082;27;70389;-40
2023/04/06 03:01:28;;;;;;;;;;;;;;;31.91;61.47;100995.84;5061109;28;66190;-41
2023/04/06 03:04:02;;;;;;;;;;;;;;;31.95;61.33;100991.63;5056951;28;69759;-41
2023/04/06 03:06:33;;;;;;;;;;;;;;;31.97;61.19;100984.09;5057233;27;67123;-41
2023/04/06 03:09:13;;;;;;;;;;;;;;;31.99;61.19;100992.84;5060872;28;69421;-41
2023/04/06 03:11:45;;;;;;;;;;;;;;;32.00;61.07;100978.22;5056858;28;66708;-41
2023/04/06 03:14:21;;;;;;;;;;;;;;;32.03;61.13;100980.47;5059634;28;70451;-41
2023/04/06 03:16:51;;;;;;;;;;;;;;;32.07;61.03;100982.72;5058257;28;65504;-41
2023/04/06 03:19:23;;;;;;;;;;;;;;;32.08;60.87;100981.69;5059716;28;69514;-40
2023/04/06 03:21:54;;;;;;;;;;;;;;;32.11;60.70;100975.81;5077122;28;66497;-41
2023/04/06 03:24:25;;;;;;;;;;;;;;;32.12;60.80;100972.03;5060226;28;69755;-40
2023/04/06 03:26:56;;;;;;;;;;;;;;;32.14;60.57;100964.50;5078697;27;66490;-42
2023/04/06 03:29:27;;;;;;;;;;;;;;;32.17;60.63;100966.75;5050670;28;70526;-41
2023/04/06 03:31:57;;;;;;;;;;;;;;;32.17;60.58;100961.34;5061163;28;66104;-41
2023/04/06 03:34:39;;;;;;;;;;;;;;;32.20;60.48;100958.16;5060187;28;70267;-41
2023/04/06 03:37:10;;;;;;;;;;;;;;;32.20;60.38;100956.28;5077116;27;66268;-42
2023/04/06 03:39:47;;;;;;;;;;;;;;;32.22;60.48;100945.19;5078887;27;69258;-41
2023/04/06 03:42:22;;;;;;;;;;;;;;;32.25;60.42;100942.03;5092442;27;66730;-41
2023/04/06 03:44:58;;;;;;;;;;;;;;;32.24;60.39;100940.38;5064645;27;70688;-40
2023/04/06 03:47:28;;;;;;;;;;;;;;;32.26;60.31;100939.09;5058885;28;65044;-41
2023/04/06 03:50:04;;;;;;;;;;;;;;;32.27;60.17;100932.59;5060852;28;69868;-40
2023/04/06 03:52:36;;;;;;;;;;;;;;;32.30;60.27;100927.78;5055117;28;67222;-40
2023/04/06 03:55:07;;;;;;;;;;;;;;;32.31;60.19;100924.81;5075976;27;70191;-40
2023/04/06 03:57:37;;;;;;;;;;;;;;;32.33;60.25;100921.88;5074069;27;66325;-40
2023/04/06 04:00:08;;;;;;;;;;;;;;;32.34;60.15;100918.09;5079847;27;70741;-41
2023/04/06 04:02:41;;;;;;;;;;;;;;;32.35;59.98;100907.03;5078518;27;66738;-41
2023/04/06 04:05:11;;;;;;;;;;;;;;;32.38;59.97;100903.84;5077541;27;69302;-40
2023/04/06 04:07:42;;;;;;;;;;;;;;;32.39;59.99;100897.34;5063631;28;66365;-41
2023/04/06 04:10:13;;;;;;;;;;;;;;;32.41;60.08;100900.66;5078629;28;70605;-40
2023/04/06 04:12:43;;;;;;;;;;;;;;;32.43;59.74;100897.72;5079373;27;66931;-40
2023/04/06 04:15:13;;;;;;;;;;;;;;;32.46;59.88;100900.03;5074465;27;69770;-42
2023/04/06 04:17:46;;;;;;;;;;;;;;;32.47;59.77;100894.34;5062948;28;66214;-41
2023/04/06 04:20:17;;;;;;;;;;;;;;;32.49;59.87;100886.81;5078480;27;70327;-41
2023/04/06 04:22:47;;;;;;;;;;;;;;;32.52;59.86;100887.41;5061550;28;66173;-41
2023/04/06 04:25:18;;;;;;;;;;;;;;;32.54;59.55;100891.56;5054005;27;69857;-41
2023/04/06 04:27:50;;;;;;;;;;;;;;;32.56;59.71;100885.88;5061827;27;67583;-40
2023/04/06 04:30:22;;;;;;;;;;;;;;;32.60;59.38;100873.50;5061702;28;70369;-41
2023/04/06 04:32:52;;;;;;;;;;;;;;;32.38;59.40;100835.97;5079314;27;66117;-41
2023/04/06 04:35:24;;;;;;;;;;;;;;;32.63;59.32;100875.75;5095537;27;69984;-41
2023/04/06 04:37:54;;;;;;;;;;;;;;;32.65;59.23;100870.88;5064281;27;66513;-41
2023/04/06 04:40:26;;;;;;;;;;;;;;;32.68;59.01;100867.72;5084777;27;70536;-40
2023/04/06 04:43:04;;;;;;;;;;;;;;;32.69;59.11;100862.06;5087703;27;66196;-40
2023/04/06 04:45:35;;;;;;;;;;;;;;;32.70;58.99;100854.72;5059476;27;70570;-41
2023/04/06 04:48:28;;;;;;;;;;;;;;;32.72;59.01;100858.03;5080417;27;67143;-43
2023/04/06 04:51:02;;;;;;;;;;;;;;;32.74;58.85;100853.22;5078751;27;70651;-41
2023/04/06 04:53:46;;;;;;;;;;;;;;;32.76;58.64;100856.50;5069031;27;66256;-40
2023/04/06 04:56:22;;;;;;;;;;;;;;;32.78;58.80;100859.81;5061683;28;69752;-41
2023/04/06 04:58:58;;;;;;;;;;;;;;;32.80;58.93;100844.13;5061257;28;66397;-41
2023/04/06 05:01:31;;;;;;;;;;;;;;;32.82;58.71;100839.28;5094576;27;69960;-41
2023/04/06 05:04:19;;;;;;;;;;;;;;;32.85;58.60;100832.56;5079349;27;66051;-41
2023/04/06 05:06:50;;;;;;;;;;;;;;;32.87;58.62;100830.41;5062082;27;70544;-41
2023/04/06 05:09:20;;;;;;;;;;;;;;;32.89;58.66;100828.31;5059568;28;66724;-41
2023/04/06 05:11:50;;;;;;;;;;;;;;;32.91;58.42;100832.44;5080377;27;69904;-41
2023/04/06 05:14:21;;;;;;;;;;;;;;;32.94;58.30;100820.28;5093466;27;67296;-40
2023/04/06 05:16:51;;;;;;;;;;;;;;;32.96;58.30;100817.31;5047239;28;70112;-41
2023/04/06 05:19:25;;;;;;;;;;;;;;;32.97;58.25;100813.53;5094076;27;66497;-41
2023/04/06 05:21:55;;;;;;;;;;;;;;;33.00;58.14;100813.09;5077338;27;70404;-40
2023/04/06 05:24:26;;;;;;;;;;;;;;;33.03;58.16;100812.63;5058068;27;65340;-41
2023/04/06 05:26:56;;;;;;;;;;;;;;;33.02;57.90;100800.13;5076766;27;69733;-39
2023/04/06 05:29:26;;;;;;;;;;;;;;;33.05;58.16;100794.19;5079483;27;66814;-41
2023/04/06 05:31:56;;;;;;;;;;;;;;;33.06;57.78;100780.34;5057721;28;70015;-40
2023/04/06 05:34:27;;;;;;;;;;;;;;;33.09;58.00;100784.50;5093911;27;65921;-41
2023/04/06 05:37:00;;;;;;;;;;;;;;;33.09;57.91;100779.88;5046058;28;69965;-40
2023/04/06 05:39:30;;;;;;;;;;;;;;;33.11;57.92;100779.66;5093194;27;66421;-40
2023/04/06 05:42:05;;;;;;;;;;;;;;;33.13;57.77;100763.94;5055285;28;69740;-40
2023/04/06 05:44:50;;;;;;;;;;;;;;;33.15;57.58;100759.06;5093024;27;67197;-40
2023/04/06 05:47:21;;;;;;;;;;;;;;;33.18;57.92;100755.06;5061360;27;70451;-40
2023/04/06 05:50:03;;;;;;;;;;;;;;;33.21;57.77;100749.13;5054113;28;66595;-40
2023/04/06 05:52:37;;;;;;;;;;;;;;;33.22;57.51;100742.66;5058897;27;70027;-41
2023/04/06 05:55:07;;;;;;;;;;;;;;;33.22;57.39;100739.94;5061621;27;66400;-41
2023/04/06 05:57:40;;;;;;;;;;;;;;;33.27;57.56;100732.72;5092751;27;70081;-41
2023/04/06 06:00:11;;;;;;;;;;;;;;;33.28;57.50;100728.91;5056158;27;66703;-42
2023/04/06 06:02:48;;;;;;;;;;;;;;;33.30;57.37;100732.22;5048706;28;69703;-41
2023/04/06 06:05:22;;;;;;;;;;;;;;;33.33;57.24;100714.63;5053215;28;66601;-41
2023/04/06 06:07:53;;;;;;;;;;;;;;;33.34;57.11;100711.63;5057585;28;69998;-42
2023/04/06 06:10:23;;;;;;;;;;;;;;;33.38;57.23;100704.66;5077320;27;65712;-40
2023/04/06 06:12:54;;;;;;;;;;;;;;;33.41;57.05;100699.81;5072074;27;71104;-41
2023/04/06 06:15:24;;;;;;;;;;;;;;;33.43;56.85;100695.75;5048298;28;66727;-41
2023/04/06 06:17:54;;;;;;;;;;;;;;;33.47;56.99;100679.81;5058477;28;70609;-42
2023/04/06 06:20:26;;;;;;;;;;;;;;;33.49;56.71;100685.81;5044571;27;66580;-40
2023/04/06 06:23:00;;;;;;;;;;;;;;;33.52;56.85;100679.91;5070635;27;69838;-41
2023/04/06 06:25:30;;;;;;;;;;;;;;;33.54;56.81;100675.06;5059114;28;66309;-41
2023/04/06 06:28:00;;;;;;;;;;;;;;;33.58;56.90;100670.81;5075570;27;70271;-40
2023/04/06 06:30:32;;;;;;;;;;;;;;;33.61;56.52;100667.59;5073330;27;66181;-41
2023/04/06 06:33:03;;;;;;;;;;;;;;;33.65;56.79;100660.56;5074353;27;70683;-41
2023/04/06 06:35:33;;;;;;;;;;;;;;;33.69;56.48;100659.03;5058091;28;65349;-41
2023/04/06 06:38:05;;;;;;;;;;;;;;;33.72;56.46;100647.66;5055960;28;70373;-41
2023/04/06 06:40:35;;;;;;;;;;;;;;;33.76;56.39;100643.38;5091749;27;66728;-41
2023/04/06 06:43:05;;;;;;;;;;;;;;;33.80;56.32;100639.09;5073187;27;70792;-41
2023/04/06 06:45:47;;;;;;;;;;;;;;;33.86;56.14;100631.03;5092531;27;67015;-41
2023/04/06 06:48:17;;;;;;;;;;;;;;;33.89;55.86;100630.53;5092268;27;69064;-39
2023/04/06 06:50:48;;;;;;;;;;;;;;;33.91;55.91;100620.22;5096399;27;66855;-41
2023/04/06 06:53:18;;;;;;;;;;;;;;;33.94;56.09;100617.00;5073543;27;70390;-41
2023/04/06 06:55:49;;;;;;;;;;;;;;;33.98;56.05;100615.44;5058968;27;65555;-42
2023/04/06 06:58:20;;;;;;;;;;;;;;;34.01;55.83;100606.78;5061370;27;70727;-42
2023/04/06 07:00:50;;;;;;;;;;;;;;;34.03;55.80;100604.63;5092489;27;67823;-42
2023/04/06 07:03:21;;;;;;;;;;;;;;;34.06;55.62;100606.88;5092014;27;70467;-41
2023/04/06 07:05:54;;;;;;;;;;;;;;;34.08;55.64;100602.03;5066566;28;66121;-40
2023/04/06 07:08:26;;;;;;;;;;;;;;;33.89;55.47;100566.03;5093414;27;69984;-41
2023/04/06 07:10:56;;;;;;;;;;;;;;;34.17;55.54;100592.34;5068389;28;65868;-42
2023/04/06 07:13:27;;;;;;;;;;;;;;;33.97;55.55;100545.75;5079129;27;69729;-41
2023/04/06 07:15:59;;;;;;;;;;;;;;;34.22;55.33;100581.53;5079734;27;67139;-41
2023/04/06 07:18:29;;;;;;;;;;;;;;;34.26;55.48;100585.41;5062450;28;69899;-41
2023/04/06 07:21:04;;;;;;;;;;;;;;;34.31;55.23;100583.84;5076723;27;65829;-41
2023/04/06 07:23:34;;;;;;;;;;;;;;;34.34;54.75;100583.34;5075527;27;69355;-41
2023/04/06 07:26:04;;;;;;;;;;;;;;;34.40;55.14;100582.31;5076297;27;65478;-41
2023/04/06 07:28:35;;;;;;;;;;;;;;;34.45;54.84;100585.13;5044880;27;69347;-41
2023/04/06 07:31:05;;;;;;;;;;;;;;;34.50;54.90;100577.03;5054276;27;65496;-41
2023/04/06 07:33:35;;;;;;;;;;;;;;;34.53;54.36;100559.34;5081157;27;70670;-40
2023/04/06 07:36:06;;;;;;;;;;;;;;;34.56;54.42;100559.69;5070287;27;66510;-42
2023/04/06 07:38:36;;;;;;;;;;;;;;;34.60;54.84;100560.84;5078253;27;69990;-42
2023/04/06 07:41:06;;;;;;;;;;;;;;;34.64;54.17;100556.53;5050024;28;66812;-42
2023/04/06 07:43:38;;;;;;;;;;;;;;;34.67;54.42;100550.56;5057439;28;70488;-41
2023/04/06 07:46:08;;;;;;;;;;;;;;;34.73;54.18;100545.19;5069593;27;65567;-40
2023/04/06 07:48:39;;;;;;;;;;;;;;;34.77;54.43;100532.69;5062504;27;69770;-40
2023/04/06 07:51:13;;;;;;;;;;;;;;;34.81;54.52;100533.84;5042303;28;66845;-41
2023/04/06 07:53:45;;;;;;;;;;;;;;;34.86;54.01;100536.63;5044689;28;70229;-41
2023/04/06 07:56:15;;;;;;;;;;;;;;;34.90;53.85;100532.28;5079166;27;66741;-41
2023/04/06 07:58:45;;;;;;;;;;;;;;;34.94;53.58;100522.53;5077064;27;70440;-40
2023/04/06 08:01:15;;;;;;;;;;;;;;;34.99;53.93;100525.28;5095471;27;66883;-41
2023/04/06 08:03:46;;;;;;;;;;;;;;;35.03;54.11;100521.00;5062660;28;69683;-43
2023/04/06 08:06:16;;;;;;;;;;;;;;;35.08;53.92;100517.53;5078507;27;66559;-42
2023/04/06 08:08:47;;;;;;;;;;;;;;;35.10;53.75;100510.75;5077637;27;69354;-40
2023/04/06 08:11:17;;;;;;;;;;;;;;;35.15;53.19;100509.94;5077221;27;66624;-40
2023/04/06 08:13:47;;;;;;;;;;;;;;;35.18;53.70;100501.25;5079392;27;70193;-42
2023/04/06 08:16:17;;;;;;;;;;;;;;;35.22;53.04;100501.56;5060008;28;66478;-42
2023/04/06 08:18:47;;;;;;;;;;;;;;;35.26;53.14;100486.31;5077383;27;70264;-42
2023/04/06 08:21:18;;;;;;;;;;;;;;;35.32;53.44;100498.91;5090693;27;65867;-41
2023/04/06 08:23:48;;;;;;;;;;;;;;;35.34;52.79;100496.75;5077483;27;70874;-42
2023/04/06 08:26:18;;;;;;;;;;;;;;;35.39;53.04;100506.91;5076178;28;66767;-41
2023/04/06 08:28:48;;;;;;;;;;;;;;;35.42;52.71;100507.19;5079535;27;70292;-41
2023/04/06 08:31:18;;;;;;;;;;;;;;;35.47;53.11;100515.44;5079260;27;65959;-41
2023/04/06 08:33:48;;;;;;;;;;;;;;;35.50;52.43;100514.91;5074877;27;70119;-41
2023/04/06 08:36:22;;;;;;;;;;;;;;;35.55;52.79;100516.81;5077505;27;65365;-41
2023/04/06 08:38:53;;;;;;;;;;;;;;;35.58;52.72;100517.19;5077930;27;69860;-41
2023/04/06 08:41:23;;;;;;;;;;;;;;;35.62;52.06;100512.00;5073404;27;66544;-40
2023/04/06 08:43:57;;;;;;;;;;;;;;;35.67;52.01;100513.97;5076561;27;69254;-41
2023/04/06 08:46:31;;;;;;;;;;;;;;;35.69;51.72;100512.63;5060056;28;66678;-41
2023/04/06 08:49:06;;;;;;;;;;;;;;;35.74;51.58;100509.09;5078986;28;69849;-41
2023/04/06 08:51:37;;;;;;;;;;;;;;;35.78;51.42;100502.03;5091291;27;65375;-40
2023/04/06 08:54:10;;;;;;;;;;;;;;;35.81;51.71;100504.22;5076217;28;68457;-41
2023/04/06 08:56:41;;;;;;;;;;;;;;;35.85;51.77;100493.59;5076347;28;66498;-41
2023/04/06 08:59:13;;;;;;;;;;;;;;;35.88;51.08;100484.88;5093733;27;68941;-41
2023/04/06 09:01:45;;;;;;;;;;;;;;;35.90;51.36;100480.00;5077309;27;65723;-41
2023/04/06 09:04:20;;;;;;;;;;;;;;;35.94;51.27;100492.00;5077095;27;70694;-41
2023/04/06 09:06:56;;;;;;;;;;;;;;;35.62;50.99;100487.47;5075073;27;66886;-41
2023/04/06 09:09:43;;;;;;;;;;;;;;;35.42;52.03;100496.28;5075994;27;70550;-41
2023/04/06 09:12:32;;;;;;;;;;;;;;;35.29;52.21;100496.72;5054817;28;65790;-41
2023/04/06 09:15:05;;;;;;;;;;;;;;;35.23;51.96;100503.22;5077481;28;69860;-40
2023/04/06 09:17:39;;;;;;;;;;;;;;;35.17;52.15;100512.44;5073418;27;66466;-41
2023/04/06 09:20:09;;;;;;;;;;;;;;;35.10;51.82;100505.28;5074694;27;70437;-43
2023/04/06 09:22:40;;;;;;;;;;;;;;;35.09;51.80;100517.25;5075956;27;66350;-43
2023/04/06 09:25:18;;;;;;;;;;;;;;;35.03;51.51;100521.00;5057317;28;70240;-41
2023/04/06 09:27:49;;;;;;;;;;;;;;;35.01;51.27;100503.25;5076851;27;65666;-41
2023/04/06 09:30:19;;;;;;;;;;;;;;;35.01;51.19;100497.78;5079109;27;70662;-41
2023/04/06 09:32:51;;;;;;;;;;;;;;;34.98;51.32;100507.31;5077452;27;66664;-43
2023/04/06 09:35:22;;;;;;;;;;;;;;;34.97;51.29;100511.13;5078909;27;69474;-43
2023/04/06 09:37:53;;;;;;;;;;;;;;;34.98;50.94;100510.03;5077101;27;66381;-41
2023/04/06 09:40:24;;;;;;;;;;;;;;;34.96;50.94;100512.19;5079229;27;69093;-42
2023/04/06 09:42:57;;;;;;;;;;;;;;;34.95;51.18;100515.19;5076816;28;66608;-41
2023/04/06 09:45:30;;;;;;;;;;;;;;;34.95;51.28;100523.34;5073929;27;70418;-43
2023/04/06 09:48:00;;;;;;;;;;;;;;;34.91;51.32;100529.31;5079998;27;66085;-44
2023/04/06 09:50:30;;;;;;;;;;;;;;;34.90;51.14;100521.38;5079026;27;69653;-44
2023/04/06 09:53:01;;;;;;;;;;;;;;;34.88;51.16;100526.25;5074787;28;66564;-43
2023/04/06 09:55:35;;;;;;;;;;;;;;;34.86;51.12;100525.72;5074334;27;70542;-44
2023/04/06 09:58:07;;;;;;;;;;;;;;;34.84;51.57;100533.31;5075854;27;65744;-45
2023/04/06 10:00:43;;;;;;;;;;;;;;;34.83;51.70;100534.41;5073234;27;70146;-44
2023/04/06 10:03:31;;;;;;;;;;;;;;;35.01;51.45;100527.78;5074609;27;66493;-43
2023/04/06 10:06:04;;;;;;;;;;;;;;;35.12;50.45;100524.91;5073433;27;69972;-44
2023/04/06 10:08:35;;;;;;;;;;;;;;;35.21;49.94;100527.19;5073249;27;67784;-44
2023/04/06 10:11:05;;;;;;;;;;;;;;;35.26;50.21;100524.50;5073841;27;70285;-44
2023/04/06 10:13:35;;;;;;;;;;;;;;;35.30;49.27;100531.06;5075679;28;66865;-44
2023/04/06 10:16:06;;;;;;;;;;;;;;;35.31;49.42;100527.28;5075018;27;69701;-43
2023/04/06 10:18:37;;;;;;;;;;;;;;;35.33;48.80;100520.50;5073358;27;67020;-45
2023/04/06 10:21:10;;;;;;;;;;;;;;;35.34;48.39;100515.84;5073848;27;70422;-45
2023/04/06 10:23:50;;;;;;;;;;;;;;;35.34;48.30;100515.84;5075007;28;64891;-44
2023/04/06 10:26:21;;;;;;;;;;;;;;;35.33;48.63;100525.13;5075173;27;69978;-44
2023/04/06 10:28:52;;;;;;;;;;;;;;;35.08;48.11;100504.72;5073600;27;66915;-46
2023/04/06 10:31:27;;;;;;;;;;;;;;;35.30;47.99;100542.81;5074842;27;69159;-42
2023/04/06 10:33:58;;;;;;;;;;;;;;;35.31;47.97;100557.28;5075597;28;66292;-44
2023/04/06 10:36:32;;;;;;;;;;;;;;;35.31;48.28;100554.56;5074018;27;70384;-44
2023/04/06 10:39:04;;;;;;;;;;;;;;;35.28;48.48;100555.06;5072106;27;65968;-44
2023/04/06 10:41:34;;;;;;;;;;;;;;;35.26;47.96;100551.78;5057650;28;69842;-44
2023/04/06 10:44:04;;;;;;;;;;;;;;;35.25;48.48;100555.59;5075099;27;66567;-44
2023/04/06 10:46:35;;;;;;;;;;;;;;;35.23;48.61;100552.28;5073619;27;71058;-44
2023/04/06 10:49:14;;;;;;;;;;;;;;;35.20;48.91;100552.81;5075634;28;66698;-43
2023/04/06 10:51:44;;;;;;;;;;;;;;;35.20;49.08;100569.16;5071980;27;70016;-44
2023/04/06 10:54:15;;;;;;;;;;;;;;;35.18;49.24;100574.03;5074699;27;64532;-45
2023/04/06 10:56:46;;;;;;;;;;;;;;;35.14;48.90;100580.00;5074844;27;69913;-43
2023/04/06 10:59:21;;;;;;;;;;;;;;;34.88;50.58;100588.94;5073054;27;66406;-45
2023/04/06 11:01:52;;;;;;;;;;;;;;;34.71;51.39;100602.63;5075226;27;70590;-45
2023/04/06 11:04:23;;;;;;;;;;;;;;;34.57;52.54;100606.81;5075027;27;66264;-44
2023/04/06 11:06:54;;;;;;;;;;;;;;;34.53;53.01;100608.38;5055239;28;70483;-44
2023/04/06 11:09:28;;;;;;;;;;;;;;;34.63;52.67;100603.06;5073790;27;65282;-45
2023/04/06 11:11:58;;;;;;;;;;;;;;;34.70;52.61;100620.91;5074657;27;68620;-44
2023/04/06 11:14:28;;;;;;;;;;;;;;;34.75;52.24;100617.41;5074890;27;65938;-44
2023/04/06 11:16:59;;;;;;;;;;;;;;;34.79;52.24;100615.00;5077025;28;67847;-43
2023/04/06 11:19:29;;;;;;;;;;;;;;;34.81;52.05;100610.94;5072467;27;65503;-43
2023/04/06 11:22:06;;;;;;;;;;;;;;;34.81;52.16;100615.59;5077136;27;70103;-44
2023/04/06 11:24:36;;;;;;;;;;;;;;;34.82;52.03;100606.31;5077660;27;66388;-44
2023/04/06 11:27:06;;;;;;;;;;;;;;;34.83;52.25;100606.06;5058879;28;68993;-44
2023/04/06 11:29:37;;;;;;;;;;;;;;;34.83;52.40;100613.44;5069916;27;66492;-44
2023/04/06 11:32:08;;;;;;;;;;;;;;;34.82;52.98;100611.75;5072364;27;69727;-44
2023/04/06 11:34:40;;;;;;;;;;;;;;;34.80;52.63;100603.00;5073991;27;66931;-44
2023/04/06 11:37:11;;;;;;;;;;;;;;;34.80;53.15;100603.00;5080267;27;70814;-46
2023/04/06 11:39:50;;;;;;;;;;;;;;;34.79;52.71;100612.28;5081595;27;68303;-44
2023/04/06 11:42:29;;;;;;;;;;;;;;;34.76;53.18;100610.06;5076560;27;68644;-44
2023/04/06 11:45:00;;;;;;;;;;;;;;;34.76;52.71;100618.25;5080998;27;67261;-45
2023/04/06 11:47:33;;;;;;;;;;;;;;;34.73;53.15;100618.75;5078330;27;71595;-44
2023/04/06 11:50:11;;;;;;;;;;;;;;;34.69;53.37;100613.81;5081324;27;65772;-44
2023/04/06 11:52:41;;;;;;;;;;;;;;;34.67;53.10;100610.50;5079257;27;69216;-44
2023/04/06 11:55:11;;;;;;;;;;;;;;;34.66;52.82;100619.75;5077339;27;67014;-46
2023/04/06 11:57:43;;;;;;;;;;;;;;;34.63;53.01;100636.63;5078146;27;69930;-44
2023/04/06 12:00:13;;;;;;;;;;;;;;;34.61;53.03;100657.81;5076519;27;66602;-44
2023/04/06 12:02:46;;;;;;;;;;;;;;;34.59;53.16;100656.44;5081806;27;70672;-45
2023/04/06 12:05:17;;;;;;;;;;;;;;;34.57;53.21;100653.94;5080412;27;66122;-44
2023/04/06 12:07:47;;;;;;;;;;;;;;;34.54;53.78;100681.66;5076416;27;70545;-44
2023/04/06 12:10:17;;;;;;;;;;;;;;;34.53;53.78;100685.47;5080235;27;65284;-44
2023/04/06 12:12:47;;;;;;;;;;;;;;;34.50;53.82;100691.41;5080129;27;70278;-44
2023/04/06 12:15:17;;;;;;;;;;;;;;;34.36;54.31;100695.56;5077579;28;65703;-44
2023/04/06 12:17:47;;;;;;;;;;;;;;;34.21;55.22;100696.97;5080033;27;70580;-44
2023/04/06 12:20:17;;;;;;;;;;;;;;;34.10;56.30;100707.91;5076550;27;66658;-44
2023/04/06 12:22:54;;;;;;;;;;;;;;;34.00;57.23;100705.81;5063469;27;70124;-43
2023/04/06 12:25:25;;;;;;;;;;;;;;;33.91;57.64;100705.41;5078515;27;66430;-44
2023/04/06 12:27:55;;;;;;;;;;;;;;;33.81;57.82;100710.66;5080408;27;70192;-45
2023/04/06 12:30:25;;;;;;;;;;;;;;;33.70;57.93;100715.09;5085595;27;66769;-44
2023/04/06 12:32:56;;;;;;;;;;;;;;;33.63;58.70;100717.13;5078858;27;69982;-44
2023/04/06 12:35:26;;;;;;;;;;;;;;;33.59;59.01;100732.28;5075845;27;66112;-43
2023/04/06 12:37:56;;;;;;;;;;;;;;;33.59;59.14;100732.28;5078168;27;70100;-45
2023/04/06 12:40:26;;;;;;;;;;;;;;;33.61;59.33;100742.94;5080399;27;66005;-44
2023/04/06 12:42:56;;;;;;;;;;;;;;;33.62;59.81;100739.13;5079326;27;69398;-43
2023/04/06 12:45:26;;;;;;;;;;;;;;;33.59;59.73;100752.13;5079140;27;66358;-43
2023/04/06 12:47:57;;;;;;;;;;;;;;;33.55;59.98;100747.44;5079702;27;69890;-44
2023/04/06 12:50:26;;;;;;;;;;;;;;;33.52;60.24;100756.91;5077815;27;66367;-43
2023/04/06 12:52:57;;;;;;;;;;;;;;;33.55;60.24;100750.97;5078809;27;69051;-44
2023/04/06 12:55:29;;;;;;;;;;;;;;;33.53;60.33;100760.44;5078858;27;65243;-44
2023/04/06 12:58:00;;;;;;;;;;;;;;;33.52;60.48;100756.91;5078646;28;69761;-44
2023/04/06 13:00:31;;;;;;;;;;;;;;;33.51;60.65;100760.63;5078857;27;65556;-44
2023/04/06 13:03:01;;;;;;;;;;;;;;;33.53;60.99;100768.59;5078575;27;69575;-44